PORTS® Data Listing: 8638610 Sewells Point, VA

CO-OPS RAW PORTS DATA

************************      PRELIMINARY DATA      ************************** 

     THIS RAW DATA HAS NOT BEEN SUBJECT TO THE NATIONAL OCEAN SERVICE'S        
     QUALITY CONTROL OR QUALITY ASSURANCE PROCEDURES AND DOES NOT MEET         
     THE CRITERIA AND STANDARDS OF OFFICIAL NATIONAL OCEAN SERVICE             
     DATA.  IT IS RELEASED FOR LIMITED PUBLIC USE AS PRELIMINARY DATA TO       
     BE USED ONLY WITH APPROPRIATE CAUTION.                                    

************************      PRELIMINARY DATA      ************************** 


       CD   -   Calendar date
       T    -   Time
       TZ   -   Timezone
       PW   -   Predicted water level (feet above MLLW)
       OW   -   Observed water level (feet above MLLW)
       WS   -   Wind speed (knots)
       WD   -   Wind direction (degrees true)
       WG   -   Wind gust (knots)
       AT   -   Air temperature (degrees farenheit)
       WT   -   Water temperature (degrees farenheit)
       AP   -   Air pressure (millibars)
       SA   -   Salinty (PSU - Practical Salinity Units)
       SG   -   Specific gravity
       RH   -   Relative humidity
       AG   -   Air gap (feet)
       VI   -   Visibility (nautical miles)

       ** NOTE **
       A variable that has its data fields filled with "9"s, indicates that
       data was not collected for that sample period.
       **********


STATION NAME: Sewells Point (8638610)
****************************************************************************************************
    CD       T    TZ    PW     OW    WS   WD   WG    AT    WT    AP    SA    SG     RH    AG   VI
****************************************************************************************************
2019/12/07 11:00 EST    0.40   0.99 -999 -999 -999 -99.9  49.3 1029.1 24.2  1.019 -99.9 -99.99 -9.99
2019/12/07 11:06 EST    0.38   0.95 -999 -999 -999 -99.9  49.3 1029.1 24.1  1.019 -99.9 -99.99 -9.99
2019/12/07 11:12 EST    0.37   0.93 -999 -999 -999 -99.9  49.1 1029.0 24.1  1.019 -99.9 -99.99 -9.99
2019/12/07 11:18 EST    0.36   0.91 -999 -999 -999 -99.9  49.1 1029.0 24.0  1.019 -99.9 -99.99 -9.99
2019/12/07 11:24 EST    0.36   0.89 -999 -999 -999 -99.9  49.1 1028.9 23.9  1.019 -99.9 -99.99 -9.99
2019/12/07 11:30 EST    0.35   0.87 -999 -999 -999 -99.9  49.1 1028.8 23.9  1.019 -99.9 -99.99 -9.99
2019/12/07 11:36 EST    0.35   0.86 -999 -999 -999 -99.9  49.1 1028.8 23.8  1.019 -99.9 -99.99 -9.99
2019/12/07 11:42 EST    0.35   0.85 -999 -999 -999 -99.9  49.1 1028.8 23.7  1.019 -99.9 -99.99 -9.99
2019/12/07 11:48 EST    0.35   0.85 -999 -999 -999 -99.9  49.1 1028.7 23.7  1.019 -99.9 -99.99 -9.99
2019/12/07 11:54 EST    0.36   0.86 -999 -999 -999 -99.9  49.1 1028.6 23.7  1.019 -99.9 -99.99 -9.99
2019/12/07 12:00 EST    0.37   0.86 -999 -999 -999 -99.9  49.1 1028.6 23.7  1.019 -99.9 -99.99 -9.99
2019/12/07 12:06 EST    0.38   0.87 -999 -999 -999 -99.9  49.1 1028.6 23.7  1.019 -99.9 -99.99 -9.99
2019/12/07 12:12 EST    0.39   0.87 -999 -999 -999 -99.9  49.1 1028.7 23.6  1.019 -99.9 -99.99 -9.99
2019/12/07 12:18 EST    0.40   0.88 -999 -999 -999 -99.9  49.1 1028.8 23.6  1.019 -99.9 -99.99 -9.99
2019/12/07 12:24 EST    0.42   0.86 -999 -999 -999 -99.9  49.1 1028.8 23.7  1.019 -99.9 -99.99 -9.99
2019/12/07 12:30 EST    0.44   0.89 -999 -999 -999 -99.9  49.1 1028.7 23.6  1.019 -99.9 -99.99 -9.99
2019/12/07 12:36 EST    0.46   0.91 -999 -999 -999 -99.9  49.1 1028.7 23.6  1.019 -99.9 -99.99 -9.99
2019/12/07 12:42 EST    0.49   0.90 -999 -999 -999 -99.9  49.1 1028.7 23.6  1.019 -99.9 -99.99 -9.99
2019/12/07 12:48 EST    0.51   0.91 -999 -999 -999 -99.9  49.1 1028.7 23.6  1.019 -99.9 -99.99 -9.99
2019/12/07 12:54 EST    0.54   0.95 -999 -999 -999 -99.9  49.1 1028.7 23.7  1.019 -99.9 -99.99 -9.99
2019/12/07 13:00 EST    0.57   0.96 -999 -999 -999 -99.9  49.1 1028.7 23.7  1.019 -99.9 -99.99 -9.99
2019/12/07 13:06 EST    0.60   1.01 -999 -999 -999 -99.9  49.1 1028.7 23.7  1.019 -99.9 -99.99 -9.99
2019/12/07 13:12 EST    0.64   1.01 -999 -999 -999 -99.9  49.1 1028.7 23.7  1.019 -99.9 -99.99 -9.99
2019/12/07 13:18 EST    0.67   1.06 -999 -999 -999 -99.9  49.1 1028.7 23.6  1.019 -99.9 -99.99 -9.99
2019/12/07 13:24 EST    0.71   1.09 -999 -999 -999 -99.9  49.1 1028.6 23.6  1.019 -99.9 -99.99 -9.99
2019/12/07 13:30 EST    0.75   1.13 -999 -999 -999 -99.9  49.1 1028.6 23.6  1.019 -99.9 -99.99 -9.99
2019/12/07 13:36 EST    0.78   1.18 -999 -999 -999 -99.9  49.1 1028.6 23.6  1.019 -99.9 -99.99 -9.99
2019/12/07 13:42 EST    0.82   1.21 -999 -999 -999 -99.9  49.1 1028.6 23.7  1.019 -99.9 -99.99 -9.99
2019/12/07 13:48 EST    0.87   1.26 -999 -999 -999 -99.9  49.1 1028.7 23.6  1.019 -99.9 -99.99 -9.99
2019/12/07 13:54 EST    0.91   1.28 -999 -999 -999 -99.9  49.1 1028.6 23.6  1.019 -99.9 -99.99 -9.99
2019/12/07 14:00 EST    0.95   1.32 -999 -999 -999 -99.9  49.1 1028.7 23.6  1.019 -99.9 -99.99 -9.99
2019/12/07 14:06 EST    1.00   1.36 -999 -999 -999 -99.9  49.1 1028.7 23.5  1.019 -99.9 -99.99 -9.99
2019/12/07 14:12 EST    1.04   1.39 -999 -999 -999 -99.9  49.1 1028.8 23.7  1.019 -99.9 -99.99 -9.99
2019/12/07 14:18 EST    1.08   1.44 -999 -999 -999 -99.9  49.1 1028.8 23.9  1.019 -99.9 -99.99 -9.99
2019/12/07 14:24 EST    1.13   1.46 -999 -999 -999 -99.9  49.1 1028.9 23.9  1.019 -99.9 -99.99 -9.99
2019/12/07 14:30 EST    1.18   1.50 -999 -999 -999 -99.9  49.3 1028.9 24.0  1.019 -99.9 -99.99 -9.99
2019/12/07 14:36 EST    1.22   1.52 -999 -999 -999 -99.9  49.1 1028.9 23.9  1.019 -99.9 -99.99 -9.99
2019/12/07 14:42 EST    1.27   1.56 -999 -999 -999 -99.9  49.3 1029.0 24.1  1.019 -99.9 -99.99 -9.99
2019/12/07 14:48 EST    1.31   1.59 -999 -999 -999 -99.9  49.3 1029.1 24.1  1.019 -99.9 -99.99 -9.99
2019/12/07 14:54 EST    1.36   1.61 -999 -999 -999 -99.9  49.3 1029.1 24.0  1.019 -99.9 -99.99 -9.99
2019/12/07 15:00 EST    1.40   1.65 -999 -999 -999 -99.9  49.3 1029.1 24.2  1.019 -99.9 -99.99 -9.99
2019/12/07 15:06 EST    1.44   1.67 -999 -999 -999 -99.9  49.3 1029.2 24.2  1.019 -99.9 -99.99 -9.99
2019/12/07 15:12 EST    1.49   1.71 -999 -999 -999 -99.9  49.3 1029.2 24.4  1.020 -99.9 -99.99 -9.99
2019/12/07 15:18 EST    1.53   1.75 -999 -999 -999 -99.9  49.3 1029.3 24.2  1.020 -99.9 -99.99 -9.99
2019/12/07 15:24 EST    1.57   1.78 -999 -999 -999 -99.9  49.3 1029.3 24.3  1.020 -99.9 -99.99 -9.99
2019/12/07 15:30 EST    1.61   1.82 -999 -999 -999 -99.9  49.3 1029.3 24.2  1.020 -99.9 -99.99 -9.99
2019/12/07 15:36 EST    1.65   1.88 -999 -999 -999 -99.9  49.3 1029.4 24.2  1.019 -99.9 -99.99 -9.99
2019/12/07 15:42 EST    1.69   1.92 -999 -999 -999 -99.9  49.3 1029.4 24.2  1.019 -99.9 -99.99 -9.99
2019/12/07 15:48 EST    1.73   1.95 -999 -999 -999 -99.9  49.3 1029.5 24.1  1.019 -99.9 -99.99 -9.99
2019/12/07 15:54 EST    1.76   2.00 -999 -999 -999 -99.9  49.3 1029.5 24.2  1.020 -99.9 -99.99 -9.99
2019/12/07 16:00 EST    1.80   2.05 -999 -999 -999 -99.9  49.3 1029.5 24.3  1.020 -99.9 -99.99 -9.99
2019/12/07 16:06 EST    1.83   2.05 -999 -999 -999 -99.9  49.3 1029.6 24.5  1.020 -99.9 -99.99 -9.99
2019/12/07 16:12 EST    1.86   2.12 -999 -999 -999 -99.9  49.3 1029.5 24.4  1.020 -99.9 -99.99 -9.99
2019/12/07 16:18 EST    1.89   2.07 -999 -999 -999 -99.9  49.5 1029.6 24.7  1.020 -99.9 -99.99 -9.99
2019/12/07 16:24 EST    1.92   2.14 -999 -999 -999 -99.9  49.5 1029.7 24.6  1.020 -99.9 -99.99 -9.99
2019/12/07 16:30 EST    1.94   2.18 -999 -999 -999 -99.9  49.5 1029.6 24.5  1.020 -99.9 -99.99 -9.99
2019/12/07 16:36 EST    1.97   2.19 -999 -999 -999 -99.9  49.5 1029.7 24.5  1.020 -99.9 -99.99 -9.99
2019/12/07 16:42 EST    1.99   2.24 -999 -999 -999 -99.9  49.3 1029.7 24.5  1.020 -99.9 -99.99 -9.99
2019/12/07 16:48 EST    2.01   2.23 -999 -999 -999 -99.9  49.5 1029.7 24.5  1.020 -99.9 -99.99 -9.99
2019/12/07 16:54 EST    2.02   2.25 -999 -999 -999 -99.9  49.3 1029.7 24.5  1.020 -99.9 -99.99 -9.99
2019/12/07 17:00 EST    2.04   2.28 -999 -999 -999 -99.9  49.3 1029.7 24.5  1.020 -99.9 -99.99 -9.99
2019/12/07 17:06 EST    2.05   2.32 -999 -999 -999 -99.9  49.3 1029.8 24.4  1.020 -99.9 -99.99 -9.99
2019/12/07 17:12 EST    2.06   2.31 -999 -999 -999 -99.9  49.5 1029.8 24.6  1.020 -99.9 -99.99 -9.99
2019/12/07 17:18 EST    2.07   2.36 -999 -999 -999 -99.9  49.5 1029.9 24.7  1.020 -99.9 -99.99 -9.99
2019/12/07 17:24 EST    2.08   2.37 -999 -999 -999 -99.9  49.5 1029.9 24.8  1.020 -99.9 -99.99 -9.99
2019/12/07 17:30 EST    2.08   2.33 -999 -999 -999 -99.9  49.5 1030.0 24.8  1.020 -99.9 -99.99 -9.99
2019/12/07 17:36 EST    2.08   2.39 -999 -999 -999 -99.9  49.5 1030.0 24.9  1.020 -99.9 -99.99 -9.99
2019/12/07 17:42 EST    2.08   2.38 -999 -999 -999 -99.9  49.5 1030.1 24.8  1.020 -99.9 -99.99 -9.99
2019/12/07 17:48 EST    2.07   2.38 -999 -999 -999 -99.9  49.5 1030.0 24.9  1.020 -99.9 -99.99 -9.99
2019/12/07 17:54 EST    2.07   2.38 -999 -999 -999 -99.9  49.5 1030.1 24.9  1.020 -99.9 -99.99 -9.99
2019/12/07 18:00 EST    2.06   2.38 -999 -999 -999 -99.9  49.5 1030.1 24.7  1.020 -99.9 -99.99 -9.99
2019/12/07 18:06 EST    2.05   2.37 -999 -999 -999 -99.9  49.5 1030.2 24.7  1.020 -99.9 -99.99 -9.99
2019/12/07 18:12 EST    2.04   2.36 -999 -999 -999 -99.9  49.5 1030.2 24.7  1.020 -99.9 -99.99 -9.99
2019/12/07 18:18 EST    2.02   2.34 -999 -999 -999 -99.9  49.5 1030.3 24.8  1.020 -99.9 -99.99 -9.99
2019/12/07 18:24 EST    2.00   2.33 -999 -999 -999 -99.9  49.5 1030.4 24.8  1.020 -99.9 -99.99 -9.99
2019/12/07 18:30 EST    1.98   2.31 -999 -999 -999 -99.9  49.5 1030.4 24.8  1.020 -99.9 -99.99 -9.99
2019/12/07 18:36 EST    1.96   2.31 -999 -999 -999 -99.9  49.5 1030.5 24.8  1.020 -99.9 -99.99 -9.99
2019/12/07 18:42 EST    1.94   2.29 -999 -999 -999 -99.9  49.5 1030.6 24.8  1.020 -99.9 -99.99 -9.99
2019/12/07 18:48 EST    1.91   2.25 -999 -999 -999 -99.9  49.5 1030.6 24.7  1.020 -99.9 -99.99 -9.99
2019/12/07 18:54 EST    1.88   2.26 -999 -999 -999 -99.9  49.5 1030.7 24.8  1.020 -99.9 -99.99 -9.99
2019/12/07 19:00 EST    1.85   2.22 -999 -999 -999 -99.9  49.5 1030.6 24.7  1.020 -99.9 -99.99 -9.99
2019/12/07 19:06 EST    1.82   2.21 -999 -999 -999 -99.9  49.5 1030.6 24.7  1.020 -99.9 -99.99 -9.99
2019/12/07 19:12 EST    1.78   2.17 -999 -999 -999 -99.9  49.5 1030.6 24.7  1.020 -99.9 -99.99 -9.99
2019/12/07 19:18 EST    1.75   2.15 -999 -999 -999 -99.9  49.5 1030.6 24.6  1.020 -99.9 -99.99 -9.99
2019/12/07 19:24 EST    1.71   2.11 -999 -999 -999 -99.9  49.5 1030.6 24.6  1.020 -99.9 -99.99 -9.99
2019/12/07 19:30 EST    1.67   2.07 -999 -999 -999 -99.9  49.5 1030.6 24.6  1.020 -99.9 -99.99 -9.99
2019/12/07 19:36 EST    1.63   2.03 -999 -999 -999 -99.9  49.5 1030.6 24.7  1.020 -99.9 -99.99 -9.99
2019/12/07 19:42 EST    1.59   1.99 -999 -999 -999 -99.9  49.5 1030.6 24.7  1.020 -99.9 -99.99 -9.99
2019/12/07 19:48 EST    1.54   1.95 -999 -999 -999 -99.9  49.5 1030.7 24.7  1.020 -99.9 -99.99 -9.99
2019/12/07 19:54 EST    1.50   1.90 -999 -999 -999 -99.9  49.5 1030.7 24.7  1.020 -99.9 -99.99 -9.99
2019/12/07 20:00 EST    1.45   1.86 -999 -999 -999 -99.9  49.5 1030.7 24.7  1.020 -99.9 -99.99 -9.99
2019/12/07 20:06 EST    1.41   1.81 -999 -999 -999 -99.9  49.5 1030.7 24.8  1.020 -99.9 -99.99 -9.99
2019/12/07 20:12 EST    1.36   1.76 -999 -999 -999 -99.9  49.5 1030.8 24.7  1.020 -99.9 -99.99 -9.99
2019/12/07 20:18 EST    1.31   1.71 -999 -999 -999 -99.9  49.5 1030.9 24.7  1.020 -99.9 -99.99 -9.99
2019/12/07 20:24 EST    1.26   1.66 -999 -999 -999 -99.9  49.5 1030.9 24.7  1.020 -99.9 -99.99 -9.99
2019/12/07 20:30 EST    1.21   1.61 -999 -999 -999 -99.9  49.5 1030.9 24.7  1.020 -99.9 -99.99 -9.99
2019/12/07 20:36 EST    1.16   1.56 -999 -999 -999 -99.9  49.5 1030.9 24.7  1.020 -99.9 -99.99 -9.99
2019/12/07 20:42 EST    1.11   1.51 -999 -999 -999 -99.9  49.5 1030.9 24.8  1.020 -99.9 -99.99 -9.99
2019/12/07 20:48 EST    1.06   1.46 -999 -999 -999 -99.9  49.5 1030.9 24.8  1.020 -99.9 -99.99 -9.99
2019/12/07 20:54 EST    1.01   1.40 -999 -999 -999 -99.9  49.5 1030.9 24.8  1.020 -99.9 -99.99 -9.99
2019/12/07 21:00 EST    0.96   1.35 -999 -999 -999 -99.9  49.5 1030.9 24.8  1.020 -99.9 -99.99 -9.99
2019/12/07 21:06 EST    0.91   1.30 -999 -999 -999 -99.9  49.5 1030.9 24.8  1.020 -99.9 -99.99 -9.99
2019/12/07 21:12 EST    0.86   1.24 -999 -999 -999 -99.9  49.5 1031.0 24.8  1.020 -99.9 -99.99 -9.99
2019/12/07 21:18 EST    0.81   1.20 -999 -999 -999 -99.9  49.5 1031.0 24.8  1.020 -99.9 -99.99 -9.99
2019/12/07 21:24 EST    0.76   1.15 -999 -999 -999 -99.9  49.5 1031.0 24.8  1.020 -99.9 -99.99 -9.99
2019/12/07 21:30 EST    0.72   1.10 -999 -999 -999 -99.9  49.5 1031.1 24.8  1.020 -99.9 -99.99 -9.99
2019/12/07 21:36 EST    0.67   1.05 -999 -999 -999 -99.9  49.5 1031.2 24.8  1.020 -99.9 -99.99 -9.99
2019/12/07 21:42 EST    0.62   1.00 -999 -999 -999 -99.9  49.5 1031.2 24.8  1.020 -99.9 -99.99 -9.99
2019/12/07 21:48 EST    0.58   0.95 -999 -999 -999 -99.9  49.5 1031.2 24.7  1.020 -99.9 -99.99 -9.99
2019/12/07 21:54 EST    0.54   0.91 -999 -999 -999 -99.9  49.5 1031.2 24.6  1.020 -99.9 -99.99 -9.99
2019/12/07 22:00 EST    0.50   0.86 -999 -999 -999 -99.9  49.3 1031.2 24.6  1.020 -99.9 -99.99 -9.99
2019/12/07 22:06 EST    0.46   0.81 -999 -999 -999 -99.9  49.3 1031.3 24.6  1.020 -99.9 -99.99 -9.99
2019/12/07 22:12 EST    0.42   0.77 -999 -999 -999 -99.9  49.3 1031.3 24.5  1.020 -99.9 -99.99 -9.99
2019/12/07 22:18 EST    0.38   0.73 -999 -999 -999 -99.9  49.3 1031.3 24.5  1.020 -99.9 -99.99 -9.99
2019/12/07 22:24 EST    0.35   0.68 -999 -999 -999 -99.9  49.3 1031.3 24.5  1.020 -99.9 -99.99 -9.99
2019/12/07 22:30 EST    0.32   0.64 -999 -999 -999 -99.9  49.1 1031.4 24.4  1.020 -99.9 -99.99 -9.99
2019/12/07 22:36 EST    0.29   0.60 -999 -999 -999 -99.9  49.1 1031.4 24.4  1.020 -99.9 -99.99 -9.99
2019/12/07 22:42 EST    0.26   0.57 -999 -999 -999 -99.9  49.1 1031.3 24.4  1.020 -99.9 -99.99 -9.99
2019/12/07 22:48 EST    0.24   0.55 -999 -999 -999 -99.9  48.9 1031.3 24.4  1.020 -99.9 -99.99 -9.99
2019/12/07 22:54 EST    0.22   0.53 -999 -999 -999 -99.9  49.1 1031.3 24.4  1.020 -99.9 -99.99 -9.99
2019/12/07 23:00 EST    0.20   0.51 -999 -999 -999 -99.9  48.9 1031.4 24.4  1.020 -99.9 -99.99 -9.99
2019/12/07 23:06 EST    0.18   0.50 -999 -999 -999 -99.9  48.9 1031.4 24.4  1.020 -99.9 -99.99 -9.99
2019/12/07 23:12 EST    0.17   0.48 -999 -999 -999 -99.9  48.7 1031.5 24.3  1.020 -99.9 -99.99 -9.99
2019/12/07 23:18 EST    0.15   0.44 -999 -999 -999 -99.9  48.6 1031.5 24.2  1.020 -99.9 -99.99 -9.99
2019/12/07 23:24 EST    0.15   0.44 -999 -999 -999 -99.9  48.6 1031.6 24.2  1.020 -99.9 -99.99 -9.99
2019/12/07 23:30 EST    0.14   0.44 -999 -999 -999 -99.9  48.7 1031.7 24.1  1.020 -99.9 -99.99 -9.99
2019/12/07 23:36 EST    0.14   0.44 -999 -999 -999 -99.9  48.7 1031.7 24.0  1.019 -99.9 -99.99 -9.99
2019/12/07 23:42 EST    0.14   0.43 -999 -999 -999 -99.9  48.7 1031.7 24.1  1.019 -99.9 -99.99 -9.99
2019/12/07 23:48 EST    0.14   0.43 -999 -999 -999 -99.9  48.7 1031.7 24.2  1.020 -99.9 -99.99 -9.99
2019/12/07 23:54 EST    0.14   0.45 -999 -999 -999 -99.9  48.6 1031.7 24.1  1.020 -99.9 -99.99 -9.99
2019/12/08 00:00 EST    0.15   0.46 -999 -999 -999 -99.9  48.6 1031.7 24.0  1.019 -99.9 -99.99 -9.99
2019/12/08 00:06 EST    0.16   0.47 -999 -999 -999 -99.9  48.7 1031.8 24.0  1.019 -99.9 -99.99 -9.99
2019/12/08 00:12 EST    0.18   0.49 -999 -999 -999 -99.9  48.6 1031.7 24.0  1.019 -99.9 -99.99 -9.99
2019/12/08 00:18 EST    0.19   0.51 -999 -999 -999 -99.9  48.6 1031.7 23.9  1.019 -99.9 -99.99 -9.99
2019/12/08 00:24 EST    0.21   0.53 -999 -999 -999 -99.9  48.6 1031.6 24.0  1.019 -99.9 -99.99 -9.99
2019/12/08 00:30 EST    0.24   0.54 -999 -999 -999 -99.9  48.4 1031.7 23.8  1.019 -99.9 -99.99 -9.99
2019/12/08 00:36 EST    0.26   0.56 -999 -999 -999 -99.9  48.4 1031.7 23.7  1.019 -99.9 -99.99 -9.99
2019/12/08 00:42 EST    0.29   0.60 -999 -999 -999 -99.9  48.4 1031.7 23.7  1.019 -99.9 -99.99 -9.99
2019/12/08 00:48 EST    0.32   0.62 -999 -999 -999 -99.9  48.2 1031.7 23.7  1.019 -99.9 -99.99 -9.99
2019/12/08 00:54 EST    0.35   0.65 -999 -999 -999 -99.9  48.2 1031.7 23.7  1.019 -99.9 -99.99 -9.99
2019/12/08 01:00 EST    0.39   0.69 -999 -999 -999 -99.9  48.2 1031.7 23.8  1.019 -99.9 -99.99 -9.99
2019/12/08 01:06 EST    0.42   0.72 -999 -999 -999 -99.9  48.2 1031.8 23.8  1.019 -99.9 -99.99 -9.99
2019/12/08 01:12 EST    0.46   0.76 -999 -999 -999 -99.9  48.4 1031.8 23.7  1.019 -99.9 -99.99 -9.99
2019/12/08 01:18 EST    0.50   0.80 -999 -999 -999 -99.9  48.4 1031.8 23.8  1.019 -99.9 -99.99 -9.99
2019/12/08 01:24 EST    0.55   0.85 -999 -999 -999 -99.9  48.4 1031.9 23.7  1.019 -99.9 -99.99 -9.99
2019/12/08 01:30 EST    0.59   0.90 -999 -999 -999 -99.9  48.4 1031.9 23.8  1.019 -99.9 -99.99 -9.99
2019/12/08 01:36 EST    0.64   0.95 -999 -999 -999 -99.9  48.4 1031.9 23.7  1.019 -99.9 -99.99 -9.99
2019/12/08 01:42 EST    0.69   0.99 -999 -999 -999 -99.9  48.2 1031.8 23.8  1.019 -99.9 -99.99 -9.99
2019/12/08 01:48 EST    0.74   1.03 -999 -999 -999 -99.9  48.2 1031.8 23.8  1.019 -99.9 -99.99 -9.99
2019/12/08 01:54 EST    0.79   1.08 -999 -999 -999 -99.9  48.2 1031.9 23.7  1.019 -99.9 -99.99 -9.99
2019/12/08 02:00 EST    0.84   1.12 -999 -999 -999 -99.9  48.2 1031.9 23.6  1.019 -99.9 -99.99 -9.99
2019/12/08 02:06 EST    0.90   1.17 -999 -999 -999 -99.9  48.2 1031.9 23.6  1.019 -99.9 -99.99 -9.99
2019/12/08 02:12 EST    0.95   1.21 -999 -999 -999 -99.9  48.2 1031.9 23.7  1.019 -99.9 -99.99 -9.99
2019/12/08 02:18 EST    1.01   1.26 -999 -999 -999 -99.9  48.2 1031.9 23.6  1.019 -99.9 -99.99 -9.99
2019/12/08 02:24 EST    1.06   1.31 -999 -999 -999 -99.9  48.2 1031.9 23.6  1.019 -99.9 -99.99 -9.99
2019/12/08 02:30 EST    1.12   1.36 -999 -999 -999 -99.9  48.2 1031.8 23.6  1.019 -99.9 -99.99 -9.99
2019/12/08 02:36 EST    1.17   1.41 -999 -999 -999 -99.9  48.2 1031.9 23.6  1.019 -99.9 -99.99 -9.99
2019/12/08 02:42 EST    1.23   1.46 -999 -999 -999 -99.9  48.2 1031.8 23.6  1.019 -99.9 -99.99 -9.99
2019/12/08 02:48 EST    1.29   1.52 -999 -999 -999 -99.9  48.2 1031.8 23.5  1.019 -99.9 -99.99 -9.99
2019/12/08 02:54 EST    1.35   1.58 -999 -999 -999 -99.9  48.2 1031.8 23.5  1.019 -99.9 -99.99 -9.99
2019/12/08 03:00 EST    1.40   1.63 -999 -999 -999 -99.9  48.0 1031.8 23.5  1.019 -99.9 -99.99 -9.99
2019/12/08 03:06 EST    1.46   1.68 -999 -999 -999 -99.9  48.0 1031.8 23.5  1.019 -99.9 -99.99 -9.99
2019/12/08 03:12 EST    1.51   1.73 -999 -999 -999 -99.9  48.2 1031.9 23.6  1.019 -99.9 -99.99 -9.99
2019/12/08 03:18 EST    1.57   1.78 -999 -999 -999 -99.9  48.2 1031.8 23.6  1.019 -99.9 -99.99 -9.99
2019/12/08 03:24 EST    1.62   1.82 -999 -999 -999 -99.9  48.0 1031.8 23.6  1.019 -99.9 -99.99 -9.99
2019/12/08 03:30 EST    1.68   1.87 -999 -999 -999 -99.9  48.0 1031.8 23.6  1.019 -99.9 -99.99 -9.99
2019/12/08 03:36 EST    1.73   1.93 -999 -999 -999 -99.9  48.0 1031.7 23.5  1.019 -99.9 -99.99 -9.99
2019/12/08 03:42 EST    1.78   1.97 -999 -999 -999 -99.9  48.0 1031.7 23.5  1.019 -99.9 -99.99 -9.99
2019/12/08 03:48 EST    1.83   2.02 -999 -999 -999 -99.9  48.0 1031.7 23.5  1.019 -99.9 -99.99 -9.99
2019/12/08 03:54 EST    1.88   2.07 -999 -999 -999 -99.9  48.0 1031.7 23.5  1.019 -99.9 -99.99 -9.99
2019/12/08 04:00 EST    1.93   2.12 -999 -999 -999 -99.9  47.8 1031.7 23.5  1.019 -99.9 -99.99 -9.99
2019/12/08 04:06 EST    1.97   2.16 -999 -999 -999 -99.9  48.0 1031.7 23.4  1.019 -99.9 -99.99 -9.99
2019/12/08 04:12 EST    2.02   2.21 -999 -999 -999 -99.9  48.0 1031.6 23.4  1.019 -99.9 -99.99 -9.99
2019/12/08 04:18 EST    2.06   2.27 -999 -999 -999 -99.9  48.0 1031.5 23.4  1.019 -99.9 -99.99 -9.99
2019/12/08 04:24 EST    2.10   2.32 -999 -999 -999 -99.9  47.8 1031.5 23.5  1.019 -99.9 -99.99 -9.99
2019/12/08 04:30 EST    2.14   2.35 -999 -999 -999 -99.9  48.0 1031.4 23.4  1.019 -99.9 -99.99 -9.99
2019/12/08 04:36 EST    2.17   2.40 -999 -999 -999 -99.9  48.2 1031.5 23.6  1.019 -99.9 -99.99 -9.99
2019/12/08 04:42 EST    2.21   2.43 -999 -999 -999 -99.9  48.2 1031.5 23.8  1.019 -99.9 -99.99 -9.99
2019/12/08 04:48 EST    2.24   2.44 -999 -999 -999 -99.9  48.4 1031.6 23.9  1.019 -99.9 -99.99 -9.99
2019/12/08 04:54 EST    2.27 -99.99 -999 -999 -999 -99.9 -99.9 -999.9 -9.9 -9.999 -99.9 -99.99 -9.99
2019/12/08 05:00 EST    2.29 -99.99 -999 -999 -999 -99.9 -99.9 -999.9 -9.9 -9.999 -99.9 -99.99 -9.99
2019/12/08 05:06 EST    2.32 -99.99 -999 -999 -999 -99.9 -99.9 -999.9 -9.9 -9.999 -99.9 -99.99 -9.99
2019/12/08 05:12 EST    2.34 -99.99 -999 -999 -999 -99.9 -99.9 -999.9 -9.9 -9.999 -99.9 -99.99 -9.99
2019/12/08 05:18 EST    2.36 -99.99 -999 -999 -999 -99.9 -99.9 -999.9 -9.9 -9.999 -99.9 -99.99 -9.99
2019/12/08 05:24 EST    2.38 -99.99 -999 -999 -999 -99.9 -99.9 -999.9 -9.9 -9.999 -99.9 -99.99 -9.99
2019/12/08 05:30 EST    2.40 -99.99 -999 -999 -999 -99.9 -99.9 -999.9 -9.9 -9.999 -99.9 -99.99 -9.99
2019/12/08 05:36 EST    2.41 -99.99 -999 -999 -999 -99.9 -99.9 -999.9 -9.9 -9.999 -99.9 -99.99 -9.99
2019/12/08 05:42 EST    2.42 -99.99 -999 -999 -999 -99.9 -99.9 -999.9 -9.9 -9.999 -99.9 -99.99 -9.99
2019/12/08 05:48 EST    2.43 -99.99 -999 -999 -999 -99.9 -99.9 -999.9 -9.9 -9.999 -99.9 -99.99 -9.99
2019/12/08 05:54 EST    2.43 -99.99 -999 -999 -999 -99.9 -99.9 -999.9 -9.9 -9.999 -99.9 -99.99 -9.99
2019/12/08 06:00 EST    2.43 -99.99 -999 -999 -999 -99.9 -99.9 -999.9 -9.9 -9.999 -99.9 -99.99 -9.99
2019/12/08 06:06 EST    2.43 -99.99 -999 -999 -999 -99.9 -99.9 -999.9 -9.9 -9.999 -99.9 -99.99 -9.99
2019/12/08 06:12 EST    2.43 -99.99 -999 -999 -999 -99.9 -99.9 -999.9 -9.9 -9.999 -99.9 -99.99 -9.99
2019/12/08 06:18 EST    2.42 -99.99 -999 -999 -999 -99.9 -99.9 -999.9 -9.9 -9.999 -99.9 -99.99 -9.99
2019/12/08 06:24 EST    2.42 -99.99 -999 -999 -999 -99.9 -99.9 -999.9 -9.9 -9.999 -99.9 -99.99 -9.99
2019/12/08 06:30 EST    2.41 -99.99 -999 -999 -999 -99.9 -99.9 -999.9 -9.9 -9.999 -99.9 -99.99 -9.99
2019/12/08 06:36 EST    2.39 -99.99 -999 -999 -999 -99.9 -99.9 -999.9 -9.9 -9.999 -99.9 -99.99 -9.99
2019/12/08 06:42 EST    2.38 -99.99 -999 -999 -999 -99.9 -99.9 -999.9 -9.9 -9.999 -99.9 -99.99 -9.99
2019/12/08 06:48 EST    2.36 -99.99 -999 -999 -999 -99.9 -99.9 -999.9 -9.9 -9.999 -99.9 -99.99 -9.99
2019/12/08 06:54 EST    2.34 -99.99 -999 -999 -999 -99.9 -99.9 -999.9 -9.9 -9.999 -99.9 -99.99 -9.99
2019/12/08 07:00 EST    2.32 -99.99 -999 -999 -999 -99.9 -99.9 -999.9 -9.9 -9.999 -99.9 -99.99 -9.99
2019/12/08 07:06 EST    2.29 -99.99 -999 -999 -999 -99.9 -99.9 -999.9 -9.9 -9.999 -99.9 -99.99 -9.99
2019/12/08 07:12 EST    2.27 -99.99 -999 -999 -999 -99.9 -99.9 -999.9 -9.9 -9.999 -99.9 -99.99 -9.99
2019/12/08 07:18 EST    2.24 -99.99 -999 -999 -999 -99.9 -99.9 -999.9 -9.9 -9.999 -99.9 -99.99 -9.99
2019/12/08 07:24 EST    2.20 -99.99 -999 -999 -999 -99.9 -99.9 -999.9 -9.9 -9.999 -99.9 -99.99 -9.99
2019/12/08 07:30 EST    2.17 -99.99 -999 -999 -999 -99.9 -99.9 -999.9 -9.9 -9.999 -99.9 -99.99 -9.99
2019/12/08 07:36 EST    2.14 -99.99 -999 -999 -999 -99.9 -99.9 -999.9 -9.9 -9.999 -99.9 -99.99 -9.99
2019/12/08 07:42 EST    2.10 -99.99 -999 -999 -999 -99.9 -99.9 -999.9 -9.9 -9.999 -99.9 -99.99 -9.99
2019/12/08 07:48 EST    2.06 -99.99 -999 -999 -999 -99.9 -99.9 -999.9 -9.9 -9.999 -99.9 -99.99 -9.99
2019/12/08 07:54 EST    2.02 -99.99 -999 -999 -999 -99.9 -99.9 -999.9 -9.9 -9.999 -99.9 -99.99 -9.99
2019/12/08 08:00 EST    1.98 -99.99 -999 -999 -999 -99.9 -99.9 -999.9 -9.9 -9.999 -99.9 -99.99 -9.99
2019/12/08 08:06 EST    1.93 -99.99 -999 -999 -999 -99.9 -99.9 -999.9 -9.9 -9.999 -99.9 -99.99 -9.99
2019/12/08 08:12 EST    1.89 -99.99 -999 -999 -999 -99.9 -99.9 -999.9 -9.9 -9.999 -99.9 -99.99 -9.99
2019/12/08 08:18 EST    1.84 -99.99 -999 -999 -999 -99.9 -99.9 -999.9 -9.9 -9.999 -99.9 -99.99 -9.99
2019/12/08 08:24 EST    1.79 -99.99 -999 -999 -999 -99.9 -99.9 -999.9 -9.9 -9.999 -99.9 -99.99 -9.99
2019/12/08 08:30 EST    1.75 -99.99 -999 -999 -999 -99.9 -99.9 -999.9 -9.9 -9.999 -99.9 -99.99 -9.99
2019/12/08 08:36 EST    1.70 -99.99 -999 -999 -999 -99.9 -99.9 -999.9 -9.9 -9.999 -99.9 -99.99 -9.99
2019/12/08 08:42 EST    1.64 -99.99 -999 -999 -999 -99.9 -99.9 -999.9 -9.9 -9.999 -99.9 -99.99 -9.99
2019/12/08 08:48 EST    1.59 -99.99 -999 -999 -999 -99.9 -99.9 -999.9 -9.9 -9.999 -99.9 -99.99 -9.99
2019/12/08 08:54 EST    1.54 -99.99 -999 -999 -999 -99.9 -99.9 -999.9 -9.9 -9.999 -99.9 -99.99 -9.99
2019/12/08 09:00 EST    1.49 -99.99 -999 -999 -999 -99.9 -99.9 -999.9 -9.9 -9.999 -99.9 -99.99 -9.99
2019/12/08 09:06 EST    1.43 -99.99 -999 -999 -999 -99.9 -99.9 -999.9 -9.9 -9.999 -99.9 -99.99 -9.99
2019/12/08 09:12 EST    1.38 -99.99 -999 -999 -999 -99.9 -99.9 -999.9 -9.9 -9.999 -99.9 -99.99 -9.99
2019/12/08 09:18 EST    1.33 -99.99 -999 -999 -999 -99.9 -99.9 -999.9 -9.9 -9.999 -99.9 -99.99 -9.99
2019/12/08 09:24 EST    1.27 -99.99 -999 -999 -999 -99.9 -99.9 -999.9 -9.9 -9.999 -99.9 -99.99 -9.99
2019/12/08 09:30 EST    1.22 -99.99 -999 -999 -999 -99.9 -99.9 -999.9 -9.9 -9.999 -99.9 -99.99 -9.99
2019/12/08 09:36 EST    1.17 -99.99 -999 -999 -999 -99.9 -99.9 -999.9 -9.9 -9.999 -99.9 -99.99 -9.99
2019/12/08 09:42 EST    1.11 -99.99 -999 -999 -999 -99.9 -99.9 -999.9 -9.9 -9.999 -99.9 -99.99 -9.99
2019/12/08 09:48 EST    1.06 -99.99 -999 -999 -999 -99.9 -99.9 -999.9 -9.9 -9.999 -99.9 -99.99 -9.99
2019/12/08 09:54 EST    1.01 -99.99 -999 -999 -999 -99.9 -99.9 -999.9 -9.9 -9.999 -99.9 -99.99 -9.99
2019/12/08 10:00 EST    0.96 -99.99 -999 -999 -999 -99.9 -99.9 -999.9 -9.9 -9.999 -99.9 -99.99 -9.99
2019/12/08 10:06 EST    0.91 -99.99 -999 -999 -999 -99.9 -99.9 -999.9 -9.9 -9.999 -99.9 -99.99 -9.99
2019/12/08 10:12 EST    0.86 -99.99 -999 -999 -999 -99.9 -99.9 -999.9 -9.9 -9.999 -99.9 -99.99 -9.99
2019/12/08 10:18 EST    0.81 -99.99 -999 -999 -999 -99.9 -99.9 -999.9 -9.9 -9.999 -99.9 -99.99 -9.99
2019/12/08 10:24 EST    0.76 -99.99 -999 -999 -999 -99.9 -99.9 -999.9 -9.9 -9.999 -99.9 -99.99 -9.99
2019/12/08 10:30 EST    0.72 -99.99 -999 -999 -999 -99.9 -99.9 -999.9 -9.9 -9.999 -99.9 -99.99 -9.99
2019/12/08 10:36 EST    0.67 -99.99 -999 -999 -999 -99.9 -99.9 -999.9 -9.9 -9.999 -99.9 -99.99 -9.99
2019/12/08 10:42 EST    0.63 -99.99 -999 -999 -999 -99.9 -99.9 -999.9 -9.9 -9.999 -99.9 -99.99 -9.99
2019/12/08 10:48 EST    0.59 -99.99 -999 -999 -999 -99.9 -99.9 -999.9 -9.9 -9.999 -99.9 -99.99 -9.99
2019/12/08 10:54 EST    0.55 -99.99 -999 -999 -999 -99.9 -99.9 -999.9 -9.9 -9.999 -99.9 -99.99 -9.99
2019/12/08 11:00 EST    0.51 -99.99 -999 -999 -999 -99.9 -99.9 -999.9 -9.9 -9.999 -99.9 -99.99 -9.99